^^
Station Historical Data
Daily Summary for January 4, 2018 Units:  Metric    English   Both
« Previous Day
Next Day »
Daily Weekly Monthly Yearly Custom
  High: Low: Average:
Temperature: -17.8 °C -17.2 °C -16.8 °C
Dew Point: -17.8 °C -17.7 °C -17.3 °C
Humidity: Humidity% 93% 93%
Wind Speed: 0km/h 0km/h 5.1km/h
Wind Gust: 0km/h - -
Wind- - East
Pressure: 0 hPa 33616.2 hPa -
Precipitation: 83.82 mm    
Historical Graphs
 
 
Tabular Data for January 4, 2018
Time Temperature Dew Point Pressure Wind Wind Speed Wind Gust Humidity Rainfall Rate (Hourly) solar Conditions
-17.8 °C -17.8 °C 0 hPa Calm     Humidity% 0 mm SoftwareType W/m2 Conditions
00:01 -17.1 °C -17.7 °C 33809.2 hPa ESE 6.8 km/h 10.3 km/h 93% 0 mm WeatherDisplay:10.37 W/m2 RA
00:05 -17.1 °C -17.7 °C 33809.2 hPa ESE 6 km/h 20.9 km/h 93% 0 mm WeatherDisplay:10.37 W/m2 RA
00:10 -17.1 °C -17.7 °C 33809.2 hPa ESE 3.4 km/h   93% 0 mm WeatherDisplay:10.37 W/m2 FEW
00:15 -17.1 °C -17.7 °C 33809.2 hPa East 7.6 km/h 15 km/h 93% 0 mm WeatherDisplay:10.37 W/m2 FEW
00:20 -17.1 °C -17.7 °C 33809.2 hPa Calm     93% 0 mm WeatherDisplay:10.37 W/m2 FEW
00:25 -17.1 °C -17.7 °C 33809.2 hPa Calm     93% 0 mm WeatherDisplay:10.37 W/m2 FEW
00:30 -17.1 °C -17.6 °C 33809.2 hPa ESE 7.7 km/h 20.9 km/h 94% 0 mm WeatherDisplay:10.37 W/m2 FEW
00:32 -17.1 °C -17.6 °C 33809.2 hPa East 10.1 km/h 20.9 km/h 94% 0 mm WeatherDisplay:10.37 W/m2 FEW
00:37 -17.1 °C -17.6 °C 33809.2 hPa East 0.5 km/h 7.7 km/h 94% 0 mm WeatherDisplay:10.37 W/m2 FEW
00:38 -17.1 °C -17.6 °C 33809.2 hPa ESE 3.9 km/h 15 km/h 94% 0 mm WeatherDisplay:10.37 W/m2 FEW
00:43 -17.1 °C -17.6 °C 33799.1 hPa Calm     94% 0 mm WeatherDisplay:10.37 W/m2 FEW
00:48 -17.1 °C -17.6 °C 33799.1 hPa ENE 7.7 km/h 17.9 km/h 94% 0 mm WeatherDisplay:10.37 W/m2 FEW
00:50 -17.1 °C -17.6 °C 33799.1 hPa ENE 5.5 km/h 9 km/h 94% 0 mm WeatherDisplay:10.37 W/m2 FEW
00:55 -17.1 °C -17.6 °C 33799.1 hPa Calm     94% 0 mm WeatherDisplay:10.37 W/m2 FEW
01:01 -17.1 °C -17.6 °C 33799.1 hPa Calm     94% 0 mm WeatherDisplay:10.37 W/m2 FEW
01:06 -17.1 °C -17.6 °C 33799.1 hPa Calm   2.6 km/h 94% 0 mm WeatherDisplay:10.37 W/m2 FEW
01:07 -17.1 °C -17.6 °C 33799.1 hPa ENE 2.1 km/h 6 km/h 94% 0 mm WeatherDisplay:10.37 W/m2 FEW
01:13 -17.1 °C -17.6 °C 33799.1 hPa Calm     94% 0 mm WeatherDisplay:10.37 W/m2 FEW
01:15 -17.1 °C -17.6 °C 33799.1 hPa Calm     94% 0 mm WeatherDisplay:10.37 W/m2 FEW
01:21 -17.1 °C -17.6 °C 33788.9 hPa Calm     94% 0 mm WeatherDisplay:10.37 W/m2 FEW
01:25 -17.1 °C -17.6 °C 33788.9 hPa ENE 1.3 km/h 9 km/h 94% 0 mm WeatherDisplay:10.37 W/m2 FEW
01:26 -17.1 °C -17.6 °C 33788.9 hPa Calm     94% 0 mm WeatherDisplay:10.37 W/m2 FEW
01:31 -17.1 °C -17.6 °C 33788.9 hPa ENE 0.3 km/h 3.1 km/h 94% 0 mm WeatherDisplay:10.37 W/m2 FEW
01:36 -17.1 °C -17.6 °C 33788.9 hPa ENE 2.3 km/h 9 km/h 94% 0 mm WeatherDisplay:10.37 W/m2 FEW
01:38 -17.1 °C -17.6 °C 33788.9 hPa Calm   2.6 km/h 94% 0 mm WeatherDisplay:10.37 W/m2 FEW
01:44 -17.1 °C -17.6 °C 33788.9 hPa Calm     94% 0 mm WeatherDisplay:10.37 W/m2 FEW
01:49 -17.1 °C -17.6 °C 33788.9 hPa Calm     94% 0 mm WeatherDisplay:10.37 W/m2 FEW
01:54 -17.1 °C -17.6 °C 33788.9 hPa Calm   9 km/h 94% 0 mm WeatherDisplay:10.37 W/m2 FEW
02:03 -17.1 °C -17.6 °C 33775.4 hPa Calm     94% 0 mm WeatherDisplay:10.37 W/m2 FEW
02:11 -17.1 °C -17.6 °C 33775.4 hPa Calm   6 km/h 94% 0 mm WeatherDisplay:10.37 W/m2 FEW
02:17 -17.1 °C -17.5 °C 33775.4 hPa ENE 0.5 km/h 3.1 km/h 94% 0 mm WeatherDisplay:10.37 W/m2 FEW
02:19 -17.1 °C -17.5 °C 33775.4 hPa ENE 0.3 km/h 10.3 km/h 94% 0 mm WeatherDisplay:10.37 W/m2 FEW
02:30 -17.1 °C -17.6 °C 33775.4 hPa Calm   11.9 km/h 93% 0 mm WeatherDisplay:10.37 W/m2 FEW
02:34 -17.1 °C -17.6 °C 33775.4 hPa Calm     93% 0 mm WeatherDisplay:10.37 W/m2 FEW
02:39 -17.1 °C -17.6 °C 33775.4 hPa ENE 1.3 km/h 6 km/h 93% 0 mm WeatherDisplay:10.37 W/m2 FEW
02:44 -17.1 °C -17.6 °C 33775.4 hPa Calm     93% 0 mm WeatherDisplay:10.37 W/m2 FEW
02:47 -17 °C -17.6 °C 33775.4 hPa Calm     93% 0 mm WeatherDisplay:10.37 W/m2 FEW
02:52 -17 °C -17.6 °C 33775.4 hPa ENE 5.1 km/h 9 km/h 93% 0 mm WeatherDisplay:10.37 W/m2 FEW
02:53 -17 °C -17.6 °C 33775.4 hPa East 6.4 km/h 9 km/h 93% 0 mm WeatherDisplay:10.37 W/m2 FEW
02:58 -17 °C -17.6 °C 33775.4 hPa Calm     93% 0 mm WeatherDisplay:10.37 W/m2 FEW
03:00 -17 °C -17.6 °C 33775.4 hPa Calm     93% 0 mm WeatherDisplay:10.37 W/m2 FEW
03:03 -17 °C -17.6 °C 33775.4 hPa ENE 3.7 km/h 6 km/h 93% 0 mm WeatherDisplay:10.37 W/m2 FEW
03:08 -17 °C -17.6 °C 33775.4 hPa Calm     93% 0 mm WeatherDisplay:10.37 W/m2 FEW
03:10 -17 °C -17.6 °C 33775.4 hPa ENE 4.7 km/h 9 km/h 93% 0 mm WeatherDisplay:10.37 W/m2 FEW
03:16 -16.9 °C -17.5 °C 33775.4 hPa Calm     93% 0 mm WeatherDisplay:10.37 W/m2 FEW
03:21 -16.9 °C -17.5 °C 33775.4 hPa Calm     93% 0 mm WeatherDisplay:10.37 W/m2 FEW
03:26 -16.9 °C -17.4 °C 33775.4 hPa Calm     93% 0 mm WeatherDisplay:10.37 W/m2 FEW
03:31 -16.9 °C -17.4 °C 33775.4 hPa East 1.8 km/h 9 km/h 93% 0 mm WeatherDisplay:10.37 W/m2 FEW
03:36 -16.8 °C -17.4 °C 33775.4 hPa ESE 1.8 km/h 18.2 km/h 93% 0 mm WeatherDisplay:10.37 W/m2 FEW
03:37 -16.8 °C -17.4 °C 33775.4 hPa ESE 6.8 km/h 17.9 km/h 93% 0 mm WeatherDisplay:10.37 W/m2 FEW
03:38 -16.8 °C -17.4 °C 33775.4 hPa East 6.9 km/h 9 km/h 93% 0 mm WeatherDisplay:10.37 W/m2 FEW
03:44 -16.8 °C -17.4 °C 33775.4 hPa Calm     93% 0 mm WeatherDisplay:10.37 W/m2 FEW
03:49 -16.8 °C -17.3 °C 33775.4 hPa East 4.3 km/h 15 km/h 93% 0 mm WeatherDisplay:10.37 W/m2 FEW
03:54 -16.8 °C -17.3 °C 33775.4 hPa ESE 9.7 km/h 17.9 km/h 93% 0 mm WeatherDisplay:10.37 W/m2 FEW
03:59 -16.8 °C -17.3 °C 33775.4 hPa East 8.5 km/h 15 km/h 93% 0 mm WeatherDisplay:10.37 W/m2 FEW
04:01 -16.8 °C -17.3 °C 33775.4 hPa East 6.8 km/h 10.3 km/h 93% 0 mm WeatherDisplay:10.37 W/m2 FEW
04:06 -16.8 °C -17.3 °C 33775.4 hPa ENE 5.1 km/h 15 km/h 93% 0 mm WeatherDisplay:10.37 W/m2 FEW
04:10 -16.7 °C -17.3 °C 33775.4 hPa East 0.8 km/h 6 km/h 93% 0 mm WeatherDisplay:10.37 W/m2 FEW
04:15 -16.8 °C -17.3 °C 33775.4 hPa East 9 km/h 20.9 km/h 93% 0 mm WeatherDisplay:10.37 W/m2 FEW
04:17 -16.8 °C -17.3 °C 33775.4 hPa ENE 10.6 km/h 23.8 km/h 93% 0 mm WeatherDisplay:10.37 W/m2 FEW
04:22 -16.8 °C -17.3 °C 33775.4 hPa East 3.1 km/h 9 km/h 93% 0 mm WeatherDisplay:10.37 W/m2 FEW
04:24 -16.8 °C -17.3 °C 33788.9 hPa ESE 7.6 km/h 17.9 km/h 93% 0 mm WeatherDisplay:10.37 W/m2 FEW
04:29 -16.8 °C -17.3 °C 33788.9 hPa East 3.7 km/h 9 km/h 93% 0 mm WeatherDisplay:10.37 W/m2 FEW
04:32 -16.8 °C -17.3 °C 33788.9 hPa East 2.3 km/h 9 km/h 93% 7.62 mm WeatherDisplay:10.37 W/m2 RA
04:38 -16.8 °C -17.4 °C 33788.9 hPa Calm     93% 7.62 mm WeatherDisplay:10.37 W/m2 RA
04:43 -16.9 °C -17.4 °C 33788.9 hPa ENE 12.4 km/h 20.9 km/h 93% 12.7 mm WeatherDisplay:10.37 W/m2 RA
04:53 -17 °C -17.6 °C 33788.9 hPa ENE 7.7 km/h 15.6 km/h 93% 12.7 mm WeatherDisplay:10.37 W/m2 RA
04:56 -17.1 °C -17.5 °C 33788.9 hPa ENE 2.3 km/h 9 km/h 94% 12.7 mm WeatherDisplay:10.37 W/m2 RA
05:01 -17.1 °C -17.6 °C 33788.9 hPa East 5.5 km/h 9 km/h 94% 12.7 mm WeatherDisplay:10.37 W/m2 RA
05:06 -17.1 °C -17.7 °C 33775.4 hPa Calm     93% 12.7 mm WeatherDisplay:10.37 W/m2 FEW
05:11 -17.2 °C -17.7 °C 33788.9 hPa ENE 0.5 km/h 5.1 km/h 93% 12.7 mm WeatherDisplay:10.37 W/m2 FEW
05:16 -17.2 °C -17.7 °C 33788.9 hPa ENE 5.1 km/h 9 km/h 93% 12.7 mm WeatherDisplay:10.37 W/m2 FEW
05:21 -17.2 °C -17.7 °C 33788.9 hPa East 2.6 km/h 11.9 km/h 93% 12.7 mm WeatherDisplay:10.37 W/m2 FEW
05:26 -17.2 °C -17.7 °C 33788.9 hPa Calm   6 km/h 93% 20.32 mm WeatherDisplay:10.37 W/m2 RA
05:31 -17.2 °C -17.7 °C 33775.4 hPa Calm   3.1 km/h 93% 12.7 mm WeatherDisplay:10.37 W/m2 RA
05:36 -17.2 °C -17.7 °C 33775.4 hPa East 6.3 km/h 15 km/h 93% 12.7 mm WeatherDisplay:10.37 W/m2 FEW
05:41 -17.2 °C -17.7 °C 33775.4 hPa East 2.3 km/h 7.7 km/h 93% 12.7 mm WeatherDisplay:10.37 W/m2 FEW
05:46 -17.2 °C -17.7 °C 33775.4 hPa Calm   6 km/h 93% 12.7 mm WeatherDisplay:10.37 W/m2 FEW
05:51 -17.2 °C -17.7 °C 33775.4 hPa ESE 9.7 km/h 20.9 km/h 93% 12.7 mm WeatherDisplay:10.37 W/m2 FEW
05:55 -17.1 °C -17.7 °C 33775.4 hPa ESE 9.3 km/h 26.9 km/h 93% 7.62 mm WeatherDisplay:10.37 W/m2 FEW
06:00 -17.1 °C -17.7 °C 33775.4 hPa ENE 5.1 km/h 15 km/h 93% 7.62 mm WeatherDisplay:10.37 W/m2 FEW
06:05 -17.1 °C -17.7 °C 33775.4 hPa ENE 6.4 km/h 17.9 km/h 93% 7.62 mm WeatherDisplay:10.37 W/m2 FEW
06:14 -17.1 °C -17.6 °C 33775.4 hPa ESE 12.4 km/h 23.8 km/h 93% 7.62 mm WeatherDisplay:10.37 W/m2 FEW
06:15 -17.1 °C -17.6 °C 33775.4 hPa ESE 2.3 km/h 23.8 km/h 93% 7.62 mm WeatherDisplay:10.37 W/m2 FEW
06:16 -17.1 °C -17.6 °C 33775.4 hPa Calm     93% 7.62 mm WeatherDisplay:10.37 W/m2 FEW
06:17 -17.1 °C -17.6 °C 33775.4 hPa NE 3.4 km/h 11.9 km/h 93% 7.62 mm WeatherDisplay:10.37 W/m2 FEW
06:18 -17.1 °C -17.6 °C 33788.9 hPa East 18.2 km/h 29.8 km/h 93% 7.62 mm WeatherDisplay:10.37 W/m2 FEW
06:19 -17.1 °C -17.6 °C 33775.4 hPa ENE 8 km/h 20.9 km/h 93% 7.62 mm WeatherDisplay:10.37 W/m2 FEW
06:21 -17.1 °C -17.6 °C 33775.4 hPa East 6.8 km/h 10.3 km/h 93% 7.62 mm WeatherDisplay:10.37 W/m2 FEW
06:22 -17.1 °C -17.6 °C 33775.4 hPa ENE 8.5 km/h 15 km/h 93% 0 mm WeatherDisplay:10.37 W/m2 FEW
06:25 -17.1 °C -17.6 °C 33775.4 hPa East 9.3 km/h 15 km/h 93% 0 mm WeatherDisplay:10.37 W/m2 FEW
06:26 -17.1 °C -17.6 °C 33775.4 hPa East 0.3 km/h 10.3 km/h 93% 0 mm WeatherDisplay:10.37 W/m2 FEW
06:27 -17.1 °C -17.6 °C 33775.4 hPa ENE 9.3 km/h 15 km/h 93% 0 mm WeatherDisplay:10.37 W/m2 FEW
06:28 -17.1 °C -17.6 °C 33775.4 hPa ENE 10.3 km/h 23.8 km/h 93% 0 mm WeatherDisplay:10.37 W/m2 FEW
06:33 -17.1 °C -17.6 °C 33775.4 hPa ESE 4.7 km/h 15 km/h 93% 0 mm WeatherDisplay:10.37 W/m2 FEW
06:38 -17.1 °C -17.6 °C 33775.4 hPa ESE 6.4 km/h 17.9 km/h 93% 0 mm WeatherDisplay:10.37 W/m2 FEW
06:44 -17.1 °C -17.6 °C 33788.9 hPa NE 12.4 km/h 20.9 km/h 93% 0 mm WeatherDisplay:10.37 W/m2 FEW
06:49 -17.1 °C -17.6 °C 33775.4 hPa ENE 1 km/h 9 km/h 93% 0 mm WeatherDisplay:10.37 W/m2 FEW
06:54 -17.1 °C -17.6 °C 33775.4 hPa ESE 5 km/h 10.3 km/h 93% 0 mm WeatherDisplay:10.37 W/m2 FEW
06:55 -17.1 °C -17.6 °C 33775.4 hPa ESE 8.5 km/h 17.9 km/h 93% 0 mm WeatherDisplay:10.37 W/m2 FEW
07:00 -17.1 °C -17.6 °C 33775.4 hPa ENE 5 km/h 9 km/h 93% 0 mm WeatherDisplay:10.37 W/m2 FEW
07:05 -17.1 °C -17.6 °C 33775.4 hPa Calm     93% 0 mm WeatherDisplay:10.37 W/m2 FEW
07:06 -17.1 °C -17.6 °C 33775.4 hPa ENE 6 km/h 15 km/h 93% 0 mm WeatherDisplay:10.37 W/m2 FEW
07:10 -17.1 °C -17.6 °C 33775.4 hPa East 11.1 km/h 29.8 km/h 93% 0 mm WeatherDisplay:10.37 W/m2 FEW
07:16 -17.1 °C -17.6 °C 33765.2 hPa ENE 10.1 km/h 20.9 km/h 93% 0 mm WeatherDisplay:10.37 W/m2 FEW
07:19 -17.1 °C -17.6 °C 33775.4 hPa ESE 1 km/h 17.9 km/h 93% 0 mm WeatherDisplay:10.37 W/m2 FEW
07:24 -17.1 °C -17.6 °C 33765.2 hPa ENE 6.9 km/h 20.9 km/h 93% 0 mm WeatherDisplay:10.37 W/m2 FEW
07:29 -17.1 °C -17.6 °C 33765.2 hPa ENE 10.3 km/h 20.9 km/h 93% 0 mm WeatherDisplay:10.37 W/m2 FEW
07:34 -17.1 °C -17.6 °C 33765.2 hPa East 7.7 km/h 20.9 km/h 93% 0 mm WeatherDisplay:10.37 W/m2 FEW
07:36 -17.1 °C -17.6 °C 33765.2 hPa East 5.1 km/h 10.3 km/h 93% 0 mm WeatherDisplay:10.37 W/m2 FEW
07:40 -17.1 °C -17.6 °C 33765.2 hPa Calm     93% 0 mm WeatherDisplay:10.37 W/m2 FEW
07:45 -17.1 °C -17.6 °C 33765.2 hPa ESE 10.9 km/h 18.2 km/h 93% 0 mm WeatherDisplay:10.37 W/m2 FEW
07:47 -17.1 °C -17.6 °C 33765.2 hPa ESE 4.2 km/h 15 km/h 93% 0 mm WeatherDisplay:10.37 W/m2 FEW
07:50 -17.1 °C -17.6 °C 33765.2 hPa Calm   9 km/h 93% 0 mm WeatherDisplay:10.37 W/m2 FEW
07:54 -17.1 °C -17.6 °C 33765.2 hPa ESE 5.6 km/h 20.9 km/h 93% 0 mm WeatherDisplay:10.37 W/m2 FEW
07:57 -17.1 °C -17.6 °C 33765.2 hPa ESE 1.6 km/h 9 km/h 93% 0 mm WeatherDisplay:10.37 W/m2 FEW
08:02 -17.1 °C -17.6 °C 33765.2 hPa ESE 0.5 km/h 9 km/h 93% 0 mm WeatherDisplay:10.37 W/m2 FEW
08:04 -17.1 °C -17.6 °C 33765.2 hPa Calm     93% 0 mm WeatherDisplay:10.37 W/m2 FEW
08:07 -17.1 °C -17.6 °C 33765.2 hPa Calm     93% 0 mm WeatherDisplay:10.37 W/m2 FEW
08:12 -17.1 °C -17.6 °C 33765.2 hPa East 6.3 km/h 9 km/h 93% 0 mm WeatherDisplay:10.37 W/m2 FEW
08:13 -17.1 °C -17.6 °C 33765.2 hPa East 9.7 km/h 15 km/h 93% 0 mm WeatherDisplay:10.37 W/m2 FEW
08:18 -17.1 °C -17.6 °C 33765.2 hPa ESE 11.4 km/h 20.9 km/h 93% 0 mm WeatherDisplay:10.37 W/m2 FEW
08:19 -17.1 °C -17.6 °C 33765.2 hPa Calm   6 km/h 93% 0 mm WeatherDisplay:10.37 W/m2 FEW
08:22 -17.1 °C -17.6 °C 33765.2 hPa East 2.3 km/h 9 km/h 93% 0 mm WeatherDisplay:10.37 W/m2 FEW
08:27 -17.1 °C -17.6 °C 33765.2 hPa NE 4.2 km/h 9 km/h 93% 0 mm WeatherDisplay:10.37 W/m2 FEW
08:29 -17.1 °C -17.6 °C 33765.2 hPa Calm     93% 0 mm WeatherDisplay:10.37 W/m2 FEW
08:33 -17.1 °C -17.6 °C 33765.2 hPa NE 0.3 km/h 9 km/h 93% 0 mm WeatherDisplay:10.37 W/m2 FEW
08:34 -17 °C -17.6 °C 33765.2 hPa ENE 1 km/h 7.7 km/h 93% 0 mm WeatherDisplay:10.37 W/m2 FEW
08:35 -17 °C -17.6 °C 33765.2 hPa ENE 5.6 km/h 15 km/h 93% 0 mm WeatherDisplay:10.37 W/m2 FEW
08:40 -17 °C -17.6 °C 33765.2 hPa ENE 1.3 km/h 10.3 km/h 93% 0 mm WeatherDisplay:10.37 W/m2 FEW
08:42 -17 °C -17.6 °C 33765.2 hPa East 6.4 km/h 17.9 km/h 93% 0 mm WeatherDisplay:10.37 W/m2 FEW
08:44 -17 °C -17.6 °C 33765.2 hPa East 2.1 km/h 11.9 km/h 93% 0 mm WeatherDisplay:10.37 W/m2 FEW
08:47 -17 °C -17.6 °C 33765.2 hPa East 0.8 km/h 10.3 km/h 93% 0 mm WeatherDisplay:10.37 W/m2 FEW
08:50 -17 °C -17.6 °C 33765.2 hPa East 1.8 km/h 9 km/h 93% 0 mm WeatherDisplay:10.37 W/m2 FEW
08:55 -17 °C -17.6 °C 33765.2 hPa East 0.3 km/h 10.3 km/h 93% 0 mm WeatherDisplay:10.37 W/m2 FEW
08:57 -17 °C -17.6 °C 33765.2 hPa East 2.6 km/h 17.9 km/h 93% 0 mm WeatherDisplay:10.37 W/m2 FEW
09:02 -17 °C -17.6 °C 33775.4 hPa East 5 km/h 20.9 km/h 93% 0 mm WeatherDisplay:10.37 W/m2 FEW
09:07 -17 °C -17.6 °C 33775.4 hPa East 5.1 km/h 20.8 km/h 93% 0 mm WeatherDisplay:10.37 W/m2 FEW
09:10 -17 °C -17.6 °C 33775.4 hPa ESE 3.7 km/h 10.3 km/h 93% 0 mm WeatherDisplay:10.37 W/m2 FEW
09:15 -16.9 °C -17.5 °C 33775.4 hPa ESE 4.2 km/h 15 km/h 93% 0 mm WeatherDisplay:10.37 W/m2 FEW
09:20 -16.9 °C -17.5 °C 33775.4 hPa Calm   9 km/h 93% 0 mm WeatherDisplay:10.37 W/m2 FEW
09:23 -16.9 °C -17.5 °C 33775.4 hPa Calm     93% 0 mm WeatherDisplay:10.37 W/m2 FEW
09:28 -16.9 °C -17.4 °C 33775.4 hPa ESE 10.9 km/h 23.8 km/h 93% 0 mm WeatherDisplay:10.37 W/m2 FEW
09:29 -16.9 °C -17.4 °C 33775.4 hPa ESE 1.6 km/h 9 km/h 93% 0 mm WeatherDisplay:10.37 W/m2 FEW
09:32 -16.9 °C -17.4 °C 33775.4 hPa SE 6 km/h 25.9 km/h 93% 0 mm WeatherDisplay:10.37 W/m2 FEW
09:35 -16.9 °C -17.4 °C 33775.4 hPa ESE 0.5 km/h 9 km/h 93% 0 mm WeatherDisplay:10.37 W/m2 FEW
09:40 -16.9 °C -17.4 °C 33788.9 hPa East 6.9 km/h 17.9 km/h 93% 0 mm WeatherDisplay:10.37 W/m2 FEW
09:45 -16.9 °C -17.4 °C 33788.9 hPa ESE 9 km/h 17.9 km/h 93% 0 mm WeatherDisplay:10.37 W/m2 FEW
09:47 -16.9 °C -17.4 °C 33788.9 hPa ESE 2.1 km/h 11.9 km/h 93% 0 mm WeatherDisplay:10.37 W/m2 FEW
09:52 -16.9 °C -17.4 °C 33788.9 hPa ENE 6.3 km/h 15 km/h 93% 0 mm WeatherDisplay:10.37 W/m2 FEW
09:56 -16.9 °C -17.4 °C 33788.9 hPa ESE 2.6 km/h 15.6 km/h 93% 0 mm WeatherDisplay:10.37 W/m2 FEW
10:01 -16.9 °C -17.4 °C 33788.9 hPa East 0.5 km/h 9 km/h 93% 0 mm WeatherDisplay:10.37 W/m2 FEW
10:05 -16.8 °C -17.4 °C 33788.9 hPa East 3.1 km/h 9 km/h 93% 0 mm WeatherDisplay:10.37 W/m2 FEW
10:11 -16.8 °C -17.4 °C 33788.9 hPa SE 11.1 km/h 20.9 km/h 93% 0 mm WeatherDisplay:10.37 W/m2 FEW
10:17 -16.9 °C -17.4 °C 33788.9 hPa SSE 6.8 km/h 17.9 km/h 93% 0 mm WeatherDisplay:10.37 W/m2 FEW
10:22 -16.9 °C -17.4 °C 33788.9 hPa ESE 6.4 km/h 15 km/h 93% 0 mm WeatherDisplay:10.37 W/m2 FEW
10:30 -16.9 °C -17.4 °C 33788.9 hPa East 8 km/h 11.9 km/h 93% 0 mm WeatherDisplay:10.37 W/m2 FEW
10:35 -16.9 °C -17.4 °C 33788.9 hPa East 1.3 km/h 9 km/h 93% 0 mm WeatherDisplay:10.37 W/m2 FEW
10:38 -16.9 °C -17.4 °C 33788.9 hPa SE 1 km/h 9 km/h 93% 0 mm WeatherDisplay:10.37 W/m2 FEW
10:46 -16.9 °C -17.4 °C 33788.9 hPa ESE 6.3 km/h 15 km/h 93% 0 mm WeatherDisplay:10.37 W/m2 FEW
10:51 -16.9 °C -17.4 °C 33788.9 hPa ESE 1.6 km/h 9 km/h 93% 0 mm WeatherDisplay:10.37 W/m2 FEW
10:56 -16.9 °C -17.4 °C 33788.9 hPa Calm     93% 0 mm WeatherDisplay:10.37 W/m2 FEW
11:01 -16.9 °C -17.4 °C 33775.4 hPa ESE 2.6 km/h 15 km/h 93% 0 mm WeatherDisplay:10.37 W/m2 FEW
11:07 -16.8 °C -17.4 °C 33775.4 hPa SW 1.6 km/h 9 km/h 93% 0 mm WeatherDisplay:10.37 W/m2 FEW
11:11 -16.8 °C -17.4 °C 33775.4 hPa SSE 13.7 km/h 17.9 km/h 93% 0 mm WeatherDisplay:10.37 W/m2 FEW
11:14 -16.8 °C -17.4 °C 33775.4 hPa East 9.3 km/h 20.9 km/h 93% 0 mm WeatherDisplay:10.37 W/m2 FEW
11:16 -16.8 °C -17.4 °C 33775.4 hPa ESE 5.6 km/h 17.9 km/h 93% 0 mm WeatherDisplay:10.37 W/m2 FEW
11:21 -16.8 °C -17.4 °C 33775.4 hPa Calm   9 km/h 93% 0 mm WeatherDisplay:10.37 W/m2 FEW
11:26 -16.8 °C -17.4 °C 33775.4 hPa East 6.4 km/h 15 km/h 93% 0 mm WeatherDisplay:10.37 W/m2 FEW
11:32 -16.8 °C -17.4 °C 33775.4 hPa ESE 6.3 km/h 11.9 km/h 93% 0 mm WeatherDisplay:10.37 W/m2 FEW
11:37 -16.8 °C -17.4 °C 33775.4 hPa ESE 4.2 km/h 6 km/h 93% 0 mm WeatherDisplay:10.37 W/m2 FEW
11:42 -16.8 °C -17.3 °C 33775.4 hPa Calm     93% 0 mm WeatherDisplay:10.37 W/m2 FEW
11:47 -16.8 °C -17.4 °C 33775.4 hPa ESE 2.6 km/h 9 km/h 93% 0 mm WeatherDisplay:10.37 W/m2 FEW
11:51 -16.8 °C -17.4 °C 33775.4 hPa East 3.7 km/h 9 km/h 93% 0 mm WeatherDisplay:10.37 W/m2 FEW
11:56 -16.8 °C -17.3 °C 33775.4 hPa East 1.3 km/h 6 km/h 93% 0 mm WeatherDisplay:10.37 W/m2 FEW
11:58 -16.8 °C -17.3 °C 33775.4 hPa East 1.8 km/h 6 km/h 93% 0 mm WeatherDisplay:10.37 W/m2 FEW
12:01 -16.8 °C -17.3 °C 33765.2 hPa Calm   9 km/h 93% 0 mm WeatherDisplay:10.37 W/m2 FEW
12:06 -16.8 °C -17.3 °C 33765.2 hPa East 0.5 km/h 10.3 km/h 93% 0 mm WeatherDisplay:10.37 W/m2 FEW
12:09 -16.8 °C -17.3 °C 33765.2 hPa East 5.5 km/h 15 km/h 93% 0 mm WeatherDisplay:10.37 W/m2 FEW
12:13 -16.8 °C -17.3 °C 33765.2 hPa ESE 6.4 km/h 15.6 km/h 93% 0 mm WeatherDisplay:10.37 W/m2 FEW
12:18 -16.8 °C -17.3 °C 33765.2 hPa ESE 8.9 km/h 17.9 km/h 94% 0 mm WeatherDisplay:10.37 W/m2 FEW
12:23 -16.8 °C -17.3 °C 33765.2 hPa East 3.1 km/h 11.9 km/h 94% 0 mm WeatherDisplay:10.37 W/m2 FEW
12:28 -16.8 °C -17.3 °C 33765.2 hPa East 2.6 km/h 9 km/h 94% 0 mm WeatherDisplay:10.37 W/m2 FEW
12:33 -16.8 °C -17.3 °C 33765.2 hPa East 1.6 km/h 15 km/h 94% 0 mm WeatherDisplay:10.37 W/m2 FEW
12:38 -16.8 °C -17.3 °C 33765.2 hPa Calm   6 km/h 94% 0 mm WeatherDisplay:10.37 W/m2 FEW
12:39 -16.7 °C -17.2 °C 33765.2 hPa East 2.3 km/h 9 km/h 94% 0 mm WeatherDisplay:10.37 W/m2 FEW
12:40 -16.8 °C -17.3 °C 33765.2 hPa East 2.9 km/h 9 km/h 94% 0 mm WeatherDisplay:10.37 W/m2 FEW
12:45 -16.7 °C -17.2 °C 33765.2 hPa East 1.6 km/h 9 km/h 94% 0 mm WeatherDisplay:10.37 W/m2 FEW
12:50 -16.7 °C -17.2 °C 33765.2 hPa ESE 3.1 km/h 26.9 km/h 94% 0 mm WeatherDisplay:10.37 W/m2 FEW
12:52 -16.7 °C -17.2 °C 33765.2 hPa East 1.3 km/h 9 km/h 94% 0 mm WeatherDisplay:10.37 W/m2 FEW
12:57 -16.7 °C -17.2 °C 33765.2 hPa ENE 11.1 km/h 23.8 km/h 94% 0 mm WeatherDisplay:10.37 W/m2 FEW
13:02 -16.7 °C -17.2 °C 33765.2 hPa ESE 1.6 km/h 15 km/h 94% 0 mm WeatherDisplay:10.37 W/m2 FEW
13:04 -16.7 °C -17.2 °C 33765.2 hPa East 8.9 km/h 20.9 km/h 94% 0 mm WeatherDisplay:10.37 W/m2 FEW
13:09 -16.7 °C -17.2 °C 33751.6 hPa ESE 6.8 km/h 9 km/h 94% 0 mm WeatherDisplay:10.37 W/m2 FEW
13:14 -16.7 °C -17.2 °C 33751.6 hPa Calm   9 km/h 94% 0 mm WeatherDisplay:10.37 W/m2 FEW
13:15 -16.7 °C -17.2 °C 33751.6 hPa East 2.3 km/h 15 km/h 94% 0 mm WeatherDisplay:10.37 W/m2 FEW
13:20 -16.7 °C -17.2 °C 33751.6 hPa SE 10.6 km/h 17.9 km/h 94% 0 mm WeatherDisplay:10.37 W/m2 FEW
13:24 -16.7 °C -17.2 °C 33751.6 hPa South 10.1 km/h 10.1 km/h 94% 0 mm WeatherDisplay:10.37 W/m2 FEW
13:25 -16.7 °C -17.2 °C 33751.6 hPa East 8.2 km/h 20.9 km/h 94% 0 mm WeatherDisplay:10.37 W/m2 FEW
13:30 -16.7 °C -17.2 °C 33751.6 hPa East 0.8 km/h 10.3 km/h 94% 0 mm WeatherDisplay:10.37 W/m2 FEW
13:35 -16.7 °C -17.2 °C 33741.5 hPa SE 10.3 km/h 17.9 km/h 94% 0 mm WeatherDisplay:10.37 W/m2 FEW
13:40 -16.7 °C -17.2 °C 33741.5 hPa ESE 9.3 km/h 15 km/h 94% 0 mm WeatherDisplay:10.37 W/m2 FEW
13:45 -16.7 °C -17.2 °C 33741.5 hPa ENE 1 km/h 9 km/h 94% 0 mm WeatherDisplay:10.37 W/m2 FEW
13:46 -16.7 °C -17.2 °C 33741.5 hPa ENE 1 km/h 9 km/h 94% 0 mm WeatherDisplay:10.37 W/m2 FEW
13:51 -16.7 °C -17.2 °C 33741.5 hPa East 1.6 km/h 9 km/h 94% 0 mm WeatherDisplay:10.37 W/m2 FEW
13:55 -16.7 °C -17.2 °C 33741.5 hPa ESE 2.9 km/h 9 km/h 94% 0 mm WeatherDisplay:10.37 W/m2 FEW
14:00 -16.7 °C -17.2 °C 33741.5 hPa ESE 5.1 km/h 15 km/h 94% 0 mm WeatherDisplay:10.37 W/m2 FEW
14:05 -16.7 °C -17.2 °C 33741.5 hPa East 5.5 km/h 17.9 km/h 94% 0 mm WeatherDisplay:10.37 W/m2 FEW
14:07 -16.7 °C -17.2 °C 33741.5 hPa ESE 3.7 km/h 9 km/h 94% 0 mm WeatherDisplay:10.37 W/m2 FEW
14:12 -16.7 °C -17.2 °C 33741.5 hPa East 4.2 km/h 17.9 km/h 94% 0 mm WeatherDisplay:10.37 W/m2 FEW
14:17 -16.7 °C -17.2 °C 33741.5 hPa ESE 5 km/h 11.9 km/h 94% 0 mm WeatherDisplay:10.37 W/m2 FEW
14:22 -16.7 °C -17.2 °C 33741.5 hPa SE 7.7 km/h 25.9 km/h 94% 0 mm WeatherDisplay:10.37 W/m2 FEW
14:27 -16.6 °C -17.1 °C 33741.5 hPa ESE 0.3 km/h 9 km/h 94% 0 mm WeatherDisplay:10.37 W/m2 FEW
14:33 -16.7 °C -17.2 °C 33741.5 hPa East 10.6 km/h 17.9 km/h 94% 0 mm WeatherDisplay:10.37 W/m2 FEW
14:38 -16.6 °C -17.1 °C 33741.5 hPa ENE 5.6 km/h 11.9 km/h 94% 0 mm WeatherDisplay:10.37 W/m2 FEW
14:43 -16.7 °C -17.2 °C 33741.5 hPa East 6 km/h 17.9 km/h 94% 0 mm WeatherDisplay:10.37 W/m2 FEW
14:48 -16.7 °C -17.2 °C 33741.5 hPa ESE 3.9 km/h 9 km/h 94% 0 mm WeatherDisplay:10.37 W/m2 FEW
14:49 -16.6 °C -17.1 °C 33741.5 hPa ESE 5 km/h 9 km/h 94% 0 mm WeatherDisplay:10.37 W/m2 FEW
14:54 -16.6 °C -17.1 °C 33741.5 hPa Calm     94% 0 mm WeatherDisplay:10.37 W/m2 FEW
14:59 -16.7 °C -17.2 °C 33741.5 hPa East 0.5 km/h 7.7 km/h 94% 0 mm WeatherDisplay:10.37 W/m2 FEW
15:00 -16.7 °C -17.2 °C 33741.5 hPa ESE 8.9 km/h 20.9 km/h 94% 0 mm WeatherDisplay:10.37 W/m2 FEW
15:05 -16.6 °C -17.1 °C 33741.5 hPa ENE 9.7 km/h 9.7 km/h 94% 0 mm WeatherDisplay:10.37 W/m2 FEW
15:09 -16.6 °C -17.1 °C 33741.5 hPa ESE 0.3 km/h 15 km/h 94% 0 mm WeatherDisplay:10.37 W/m2 FEW
15:15 -16.6 °C -17.1 °C 33741.5 hPa East 2.6 km/h 9 km/h 94% 0 mm WeatherDisplay:10.37 W/m2 FEW
15:20 -16.6 °C -17.1 °C 33731.3 hPa East 3.4 km/h 15 km/h 94% 0 mm WeatherDisplay:10.37 W/m2 FEW
15:23 -16.6 °C -17.1 °C 33731.3 hPa East 1.6 km/h 9 km/h 94% 0 mm WeatherDisplay:10.37 W/m2 FEW
15:24 -16.6 °C -17.1 °C 33731.3 hPa East 2.3 km/h 9 km/h 94% 0 mm WeatherDisplay:10.37 W/m2 FEW
15:29 -16.6 °C -17.1 °C 33731.3 hPa ESE 2.6 km/h 9 km/h 94% 0 mm WeatherDisplay:10.37 W/m2 FEW
15:32 -16.6 °C -17.1 °C 33731.3 hPa ENE 3.4 km/h 10.3 km/h 94% 0 mm WeatherDisplay:10.37 W/m2 FEW
15:37 -16.6 °C -17.1 °C 33731.3 hPa East 3.1 km/h 9 km/h 93% 0 mm WeatherDisplay:10.37 W/m2 FEW
15:43 -16.6 °C -17.2 °C 33717.8 hPa East 1.8 km/h 9 km/h 93% 0 mm WeatherDisplay:10.37 W/m2 FEW
15:47 -16.6 °C -17.1 °C 33717.8 hPa SE 7.7 km/h 9 km/h 94% 0 mm WeatherDisplay:10.37 W/m2 FEW
15:53 -16.6 °C -17.1 °C 33717.8 hPa ESE 12.9 km/h 26.9 km/h 94% 0 mm WeatherDisplay:10.37 W/m2 FEW
15:58 -16.6 °C -17.1 °C 33717.8 hPa ESE 2.6 km/h 10.3 km/h 94% 0 mm WeatherDisplay:10.37 W/m2 FEW
16:02 -16.6 °C -17.1 °C 33717.8 hPa ESE 6.9 km/h 17.9 km/h 94% 0 mm WeatherDisplay:10.37 W/m2 FEW
16:07 -16.6 °C -17.1 °C 33717.8 hPa ENE 2.9 km/h 17.9 km/h 94% 0 mm WeatherDisplay:10.37 W/m2 FEW
16:13 -16.6 °C -17.1 °C 33717.8 hPa East 6.8 km/h 15 km/h 94% 0 mm WeatherDisplay:10.37 W/m2 FEW
16:18 -16.6 °C -17.1 °C 33717.8 hPa SE 7.7 km/h 20.9 km/h 94% 0 mm WeatherDisplay:10.37 W/m2 FEW
16:21 -16.6 °C -17.1 °C 33717.8 hPa East 4.7 km/h 11.9 km/h 94% 0 mm WeatherDisplay:10.37 W/m2 FEW
16:26 -16.6 °C -17.1 °C 33717.8 hPa SE 9.7 km/h 17.9 km/h 94% 0 mm WeatherDisplay:10.37 W/m2 FEW
16:27 -16.6 °C -17.1 °C 33717.8 hPa ESE 8.5 km/h 11.9 km/h 94% 0 mm WeatherDisplay:10.37 W/m2 FEW
16:30 -16.6 °C -17.1 °C 33717.8 hPa ESE 7.2 km/h 20.9 km/h 94% 0 mm WeatherDisplay:10.37 W/m2 FEW
16:35 -16.6 °C -17.1 °C 33717.8 hPa East 9.7 km/h 20.9 km/h 94% 0 mm WeatherDisplay:10.37 W/m2 FEW
16:40 -16.6 °C -17.1 °C 33717.8 hPa ESE 1.3 km/h 9 km/h 94% 0 mm WeatherDisplay:10.37 W/m2 FEW
16:43 -16.6 °C -17.1 °C 33717.8 hPa ESE 0.3 km/h 3.1 km/h 94% 0 mm WeatherDisplay:10.37 W/m2 FEW
16:48 -16.6 °C -17.1 °C 33717.8 hPa ESE 9.7 km/h 23.8 km/h 94% 0 mm WeatherDisplay:10.37 W/m2 FEW
16:50 -16.6 °C -17.1 °C 33717.8 hPa East 5 km/h 20.9 km/h 94% 0 mm WeatherDisplay:10.37 W/m2 FEW
16:55 -16.6 °C -17.1 °C 33717.8 hPa ESE 14.2 km/h 26.9 km/h 94% 0 mm WeatherDisplay:10.37 W/m2 FEW
16:57 -16.6 °C -17.1 °C 33707.6 hPa ESE 7.7 km/h 15 km/h 94% 0 mm WeatherDisplay:10.37 W/m2 FEW
17:03 -16.6 °C -17.1 °C 33717.8 hPa ESE 8.5 km/h 26.9 km/h 94% 0 mm WeatherDisplay:10.37 W/m2 FEW
17:08 -16.6 °C -17.1 °C 33707.6 hPa NE 4.7 km/h 26.9 km/h 94% 0 mm WeatherDisplay:10.37 W/m2 FEW
17:10 -16.6 °C -17.1 °C 33707.6 hPa SE 15.6 km/h 26.9 km/h 94% 0 mm WeatherDisplay:10.37 W/m2 FEW
17:11 -16.6 °C -17.1 °C 33707.6 hPa ESE 11.4 km/h 23.8 km/h 94% 0 mm WeatherDisplay:10.37 W/m2 FEW
17:15 -16.6 °C -17.1 °C 33707.6 hPa SE 3.7 km/h 9 km/h 94% 0 mm WeatherDisplay:10.37 W/m2 FEW
17:20 -16.6 °C -17.1 °C 33707.6 hPa SE 9.8 km/h 23.8 km/h 94% 0 mm WeatherDisplay:10.37 W/m2 FEW
17:24 -16.6 °C -17.1 °C 33707.6 hPa East 8.5 km/h 15 km/h 94% 0 mm WeatherDisplay:10.37 W/m2 FEW
17:29 -16.6 °C -17.1 °C 33707.6 hPa East 10.1 km/h 20.9 km/h 94% 0 mm WeatherDisplay:10.37 W/m2 FEW
17:34 -16.6 °C -17.1 °C 33707.6 hPa ESE 6.4 km/h 9 km/h 94% 0 mm WeatherDisplay:10.37 W/m2 FEW
17:39 -16.6 °C -17.1 °C 33707.6 hPa ESE 6.9 km/h 17.9 km/h 94% 0 mm WeatherDisplay:10.37 W/m2 FEW
17:43 -16.6 °C -17.1 °C 33707.6 hPa East 13.7 km/h 26.9 km/h 94% 0 mm WeatherDisplay:10.37 W/m2 FEW
17:48 -16.6 °C -17.1 °C 33694.1 hPa ESE 2.9 km/h 9 km/h 94% 0 mm WeatherDisplay:10.37 W/m2 FEW
17:51 -16.5 °C -17 °C 33707.6 hPa SE 3.7 km/h 15 km/h 94% 0 mm WeatherDisplay:10.37 W/m2 FEW
17:53 -16.5 °C -17 °C 33694.1 hPa ESE 9.3 km/h 9.3 km/h 94% 0 mm WeatherDisplay:10.37 W/m2 FEW
17:54 -16.5 °C -17 °C 33694.1 hPa SE 10.6 km/h 17.9 km/h 94% 0 mm WeatherDisplay:10.37 W/m2 FEW
17:56 -16.5 °C -17 °C 33707.6 hPa Calm     94% 0 mm WeatherDisplay:10.37 W/m2 FEW
18:01 -16.5 °C -17 °C 33707.6 hPa SE 4.3 km/h 10.3 km/h 94% 0 mm WeatherDisplay:10.37 W/m2 FEW
18:06 -16.5 °C -17 °C 33694.1 hPa East 6 km/h 20.8 km/h 94% 0 mm WeatherDisplay:10.37 W/m2 FEW
18:09 -16.5 °C -17 °C 33694.1 hPa SSE 8.2 km/h 17.9 km/h 94% 0 mm WeatherDisplay:10.37 W/m2 FEW
18:14 -16.6 °C -17.1 °C 33694.1 hPa SSE 6.9 km/h 23.8 km/h 94% 7.62 mm WeatherDisplay:10.37 W/m2 RA
18:19 -16.6 °C -17.1 °C 33694.1 hPa ENE 8.2 km/h 23.8 km/h 94% 7.62 mm WeatherDisplay:10.37 W/m2 RA
18:25 -16.6 °C -17.1 °C 33694.1 hPa NE 7.6 km/h 17.9 km/h 94% 7.62 mm WeatherDisplay:10.37 W/m2 FEW
18:28 -16.6 °C -17.1 °C 33694.1 hPa ENE 0.5 km/h 7.7 km/h 94% 7.62 mm WeatherDisplay:10.37 W/m2 FEW
18:33 -16.6 °C -17.1 °C 33694.1 hPa East 14.2 km/h 29.8 km/h 94% 7.62 mm WeatherDisplay:10.37 W/m2 FEW
18:38 -16.6 °C -17.1 °C 33694.1 hPa East 4.7 km/h 9 km/h 94% 7.62 mm WeatherDisplay:10.37 W/m2 FEW
18:39 -16.6 °C -17.1 °C 33694.1 hPa East 1.8 km/h 9 km/h 94% 7.62 mm WeatherDisplay:10.37 W/m2 FEW
18:40 -16.6 °C -17.1 °C 33694.1 hPa ENE 12.2 km/h 26.9 km/h 94% 7.62 mm WeatherDisplay:10.37 W/m2 FEW
18:44 -16.6 °C -17.1 °C 33694.1 hPa East 13.7 km/h 29.8 km/h 94% 7.62 mm WeatherDisplay:10.37 W/m2 FEW
18:45 -16.6 °C -17.1 °C 33694.1 hPa East 8.5 km/h 29.8 km/h 94% 7.62 mm WeatherDisplay:10.37 W/m2 FEW
18:47 -16.6 °C -17.1 °C 33694.1 hPa SE 8.2 km/h 11.9 km/h 93% 7.62 mm WeatherDisplay:10.37 W/m2 FEW
18:48 -16.5 °C -17.1 °C 33694.1 hPa ESE 5.1 km/h 15 km/h 93% 7.62 mm WeatherDisplay:10.37 W/m2 FEW
18:53 -16.5 °C -17.1 °C 33683.9 hPa ESE 12.7 km/h 23.8 km/h 93% 7.62 mm WeatherDisplay:10.37 W/m2 FEW
18:58 -16.5 °C -17.1 °C 33683.9 hPa ESE 12.2 km/h 20.9 km/h 93% 7.62 mm WeatherDisplay:10.37 W/m2 FEW
19:03 -16.5 °C -17.1 °C 33694.1 hPa ENE 3.1 km/h 11.9 km/h 93% 7.62 mm WeatherDisplay:10.37 W/m2 FEW
19:04 -16.5 °C -17.1 °C 33683.9 hPa South 3.7 km/h 9 km/h 93% 7.62 mm WeatherDisplay:10.37 W/m2 FEW
19:09 -16.5 °C -17.1 °C 33683.9 hPa ENE 10.6 km/h 20.9 km/h 93% 7.62 mm WeatherDisplay:10.37 W/m2 FEW
19:14 -16.6 °C -17.1 °C 33683.9 hPa NE 5 km/h 9 km/h 93% 0 mm WeatherDisplay:10.37 W/m2 FEW
19:19 -16.5 °C -17.1 °C 33683.9 hPa East 15.3 km/h 29.8 km/h 93% 0 mm WeatherDisplay:10.37 W/m2 FEW
19:24 -16.5 °C -17.1 °C 33683.9 hPa ENE 10.1 km/h 17.9 km/h 93% 0 mm WeatherDisplay:10.37 W/m2 FEW
19:30 -16.5 °C -17.1 °C 33683.9 hPa East 9 km/h 20.9 km/h 93% 0 mm WeatherDisplay:10.37 W/m2 FEW
19:35 -16.5 °C -17.1 °C 33683.9 hPa ESE 3.7 km/h 23.8 km/h 93% 0 mm WeatherDisplay:10.37 W/m2 FEW
19:41 -16.5 °C -17.1 °C 33683.9 hPa ESE 10.6 km/h 17.9 km/h 93% 0 mm WeatherDisplay:10.37 W/m2 FEW
19:47 -16.5 °C -17.1 °C 33673.8 hPa ESE 8 km/h 12.9 km/h 93% 0 mm WeatherDisplay:10.37 W/m2 FEW
19:52 -16.5 °C -17.1 °C 33673.8 hPa ENE 0.3 km/h 9 km/h 93% 0 mm WeatherDisplay:10.37 W/m2 FEW
19:53 -16.5 °C -17.1 °C 33673.8 hPa ENE 7.6 km/h 26.9 km/h 93% 0 mm WeatherDisplay:10.37 W/m2 FEW
19:59 -16.5 °C -17.1 °C 33673.8 hPa ENE 11.4 km/h 26.9 km/h 93% 0 mm WeatherDisplay:10.37 W/m2 FEW
20:02 -16.5 °C -17.1 °C 33673.8 hPa ESE 3.7 km/h 11.9 km/h 93% 0 mm WeatherDisplay:10.37 W/m2 FEW
20:07 -16.5 °C -17.1 °C 33673.8 hPa ESE 3.7 km/h 15 km/h 93% 0 mm WeatherDisplay:10.37 W/m2 FEW
20:13 -16.4 °C -17 °C 33673.8 hPa SE 5.1 km/h 15 km/h 93% 0 mm WeatherDisplay:10.37 W/m2 FEW
20:16 -16.4 °C -17 °C 33673.8 hPa ESE 4.2 km/h 10.3 km/h 93% 0 mm WeatherDisplay:10.37 W/m2 FEW
20:22 -16.4 °C -17 °C 33673.8 hPa South 6 km/h 17.9 km/h 93% 7.62 mm WeatherDisplay:10.37 W/m2 RA
20:27 -16.4 °C -17 °C 33660.2 hPa ENE 4.3 km/h 9 km/h 93% 7.62 mm WeatherDisplay:10.37 W/m2 RA
20:29 -16.4 °C -17 °C 33660.2 hPa SSE 6.9 km/h 17.9 km/h 93% 7.62 mm WeatherDisplay:10.37 W/m2 FEW
20:35 -16.4 °C -17 °C 33660.2 hPa ENE 2.6 km/h 10.3 km/h 93% 7.62 mm WeatherDisplay:10.37 W/m2 FEW
20:40 -16.4 °C -17 °C 33660.2 hPa East 11.1 km/h 20.9 km/h 93% 7.62 mm WeatherDisplay:10.37 W/m2 FEW
20:43 -16.4 °C -17 °C 33660.2 hPa South 16.3 km/h 23.3 km/h 93% 7.62 mm WeatherDisplay:10.37 W/m2 FEW
20:49 -16.4 °C -17 °C 33660.2 hPa SE 17.5 km/h 29.8 km/h 93% 7.62 mm WeatherDisplay:10.37 W/m2 FEW
20:54 -16.4 °C -17 °C 33660.2 hPa East 5.5 km/h 9 km/h 93% 7.62 mm WeatherDisplay:10.37 W/m2 FEW
20:59 -16.4 °C -17 °C 33650.1 hPa ESE 13.7 km/h 23.8 km/h 93% 7.62 mm WeatherDisplay:10.37 W/m2 FEW
21:04 -16.4 °C -17 °C 33650.1 hPa SE 13.7 km/h 23.8 km/h 93% 7.62 mm WeatherDisplay:10.37 W/m2 FEW
21:10 -16.4 °C -17 °C 33650.1 hPa East 3.9 km/h 15 km/h 93% 7.62 mm WeatherDisplay:10.37 W/m2 FEW
21:15 -16.4 °C -17 °C 33650.1 hPa ESE 8.5 km/h 15.6 km/h 93% 7.62 mm WeatherDisplay:10.37 W/m2 FEW
21:20 -16.4 °C -17 °C 33650.1 hPa East 8 km/h 11.9 km/h 93% 0 mm WeatherDisplay:10.37 W/m2 FEW
21:26 -16.4 °C -17 °C 33650.1 hPa SSE 6.9 km/h 15 km/h 93% 0 mm WeatherDisplay:10.37 W/m2 FEW
21:31 -16.4 °C -17 °C 33650.1 hPa ENE 0.5 km/h 6 km/h 93% 0 mm WeatherDisplay:10.37 W/m2 FEW
21:36 -16.4 °C -17 °C 33650.1 hPa SSW 6.4 km/h 17.9 km/h 93% 0 mm WeatherDisplay:10.37 W/m2 FEW
21:43 -16.4 °C -17 °C 33650.1 hPa East 1.8 km/h 10.3 km/h 93% 0 mm WeatherDisplay:10.37 W/m2 FEW
21:49 -16.4 °C -16.9 °C 33650.1 hPa ESE 6 km/h 29.8 km/h 93% 0 mm WeatherDisplay:10.37 W/m2 FEW
21:54 -16.4 °C -16.9 °C 33650.1 hPa East 7.2 km/h 10.3 km/h 93% 0 mm WeatherDisplay:10.37 W/m2 FEW
21:59 -16.4 °C -16.9 °C 33650.1 hPa ESE 8.9 km/h 17.9 km/h 93% 0 mm WeatherDisplay:10.37 W/m2 FEW
22:04 -16.4 °C -16.9 °C 33650.1 hPa ESE 6.4 km/h 9 km/h 93% 0 mm WeatherDisplay:10.37 W/m2 FEW
22:09 -16.3 °C -16.9 °C 33639.9 hPa East 10.1 km/h 20.9 km/h 93% 0 mm WeatherDisplay:10.37 W/m2 FEW
22:14 -16.3 °C -16.9 °C 33639.9 hPa ESE 6.3 km/h 15 km/h 93% 0 mm WeatherDisplay:10.37 W/m2 FEW
22:19 -16.3 °C -16.9 °C 33639.9 hPa ESE 5.5 km/h 11.9 km/h 93% 0 mm WeatherDisplay:10.37 W/m2 FEW
22:21 -16.3 °C -16.9 °C 33639.9 hPa ESE 7.2 km/h 26.9 km/h 93% 0 mm WeatherDisplay:10.37 W/m2 FEW
22:28 -16.3 °C -16.9 °C 33639.9 hPa SE 12.7 km/h 26.9 km/h 93% 0 mm WeatherDisplay:10.37 W/m2 FEW
22:32 -16.3 °C -16.9 °C 33639.9 hPa ESE 11.9 km/h 15.6 km/h 93% 0 mm WeatherDisplay:10.37 W/m2 FEW
22:37 -16.3 °C -16.9 °C 33639.9 hPa SE 4.2 km/h 20.8 km/h 93% 0 mm WeatherDisplay:10.37 W/m2 FEW
22:38 -16.3 °C -16.9 °C 33639.9 hPa SE 6.9 km/h 20.9 km/h 93% 0 mm WeatherDisplay:10.37 W/m2 FEW
22:43 -16.3 °C -16.8 °C 33639.9 hPa ENE 9.8 km/h 20.9 km/h 93% 0 mm WeatherDisplay:10.37 W/m2 FEW
22:45 -16.3 °C -16.8 °C 33626.4 hPa East 1.8 km/h 15 km/h 93% 0 mm WeatherDisplay:10.37 W/m2 FEW
22:50 -16.3 °C -16.8 °C 33626.4 hPa SE 8.9 km/h 12.9 km/h 93% 0 mm WeatherDisplay:10.37 W/m2 FEW
22:56 -16.3 °C -16.8 °C 33626.4 hPa SE 14 km/h 23.8 km/h 93% 0 mm WeatherDisplay:10.37 W/m2 FEW
23:15 -16.3 °C -16.8 °C 33626.4 hPa ESE 5.5 km/h 7.7 km/h 93% 12.7 mm WeatherDisplay:10.37 W/m2 RA
23:29 -16.3 °C -16.8 °C 33626.4 hPa Calm     93% 20.32 mm WeatherDisplay:10.37 W/m2 RA
23:33 -16.3 °C -16.9 °C 33616.2 hPa East 13.7 km/h 23.8 km/h 93% 25.4 mm WeatherDisplay:10.37 W/m2 RA
23:35 -16.3 °C -16.9 °C 33616.2 hPa East 6 km/h 20.9 km/h 93% 25.4 mm WeatherDisplay:10.37 W/m2 RA
23:43 -16.3 °C -16.9 °C 33616.2 hPa Calm     93% 38.1 mm WeatherDisplay:10.37 W/m2 RA
23:44 -16.3 °C -16.9 °C 33616.2 hPa SE 0.3 km/h 9 km/h 93% 38.1 mm WeatherDisplay:10.37 W/m2 RA
23:46 -16.3 °C -16.9 °C 33616.2 hPa East 8 km/h 20.9 km/h 93% 38.1 mm WeatherDisplay:10.37 W/m2 RA
23:47 -16.3 °C -16.9 °C 33616.2 hPa ESE 6.8 km/h 9 km/h 93% 38.1 mm WeatherDisplay:10.37 W/m2 RA
23:50 -16.3 °C -16.9 °C 33616.2 hPa East 12.7 km/h 23.8 km/h 93% 38.1 mm WeatherDisplay:10.37 W/m2 RA
23:52 -16.3 °C -16.9 °C 33616.2 hPa ENE 7.2 km/h 32.8 km/h 93% 38.1 mm WeatherDisplay:10.37 W/m2 RA
23:53 -16.4 °C -16.9 °C 33616.2 hPa South 0.5 km/h 12.9 km/h 93% 38.1 mm WeatherDisplay:10.37 W/m2 RA
23:56 -16.4 °C -16.9 °C 33616.2 hPa SE 12.2 km/h 12.2 km/h 93% 45.72 mm WeatherDisplay:10.37 W/m2 RA
23:59 -16.4 °C -17 °C 33616.2 hPa ESE 8.2 km/h 17.9 km/h 93% 45.72 mm WeatherDisplay:10.37 W/m2 RA
Tuulensuunkaari, Veikkola, Suomi
Compliments of Weather Underground - 3 mb